sensor_id;sensor_type;location;lat;lon;timestamp;P1;durP1;ratioP1;P2;durP2;ratioP2
10126;SDS011;13080;42.608;23.362;2023-04-28T00:02:01;3.15;;;2.08;;
10126;SDS011;13080;42.608;23.362;2023-04-28T00:04:28;3.45;;;1.92;;
10126;SDS011;13080;42.608;23.362;2023-04-28T00:06:56;3.45;;;2.40;;
10126;SDS011;13080;42.608;23.362;2023-04-28T00:09:23;7.57;;;2.25;;
10126;SDS011;13080;42.608;23.362;2023-04-28T00:11:50;6.47;;;2.15;;
10126;SDS011;13080;42.608;23.362;2023-04-28T00:14:17;6.13;;;2.33;;
10126;SDS011;13080;42.608;23.362;2023-04-28T00:16:43;3.25;;;2.38;;
10126;SDS011;13080;42.608;23.362;2023-04-28T00:19:10;2.67;;;1.75;;
10126;SDS011;13080;42.608;23.362;2023-04-28T00:21:37;4.15;;;2.22;;
10126;SDS011;13080;42.608;23.362;2023-04-28T00:24:05;4.55;;;2.22;;
10126;SDS011;13080;42.608;23.362;2023-04-28T00:26:32;4.78;;;2.10;;
10126;SDS011;13080;42.608;23.362;2023-04-28T00:28:59;7.13;;;2.03;;
10126;SDS011;13080;42.608;23.362;2023-04-28T00:31:26;6.80;;;2.60;;
10126;SDS011;13080;42.608;23.362;2023-04-28T00:33:53;4.47;;;2.28;;
10126;SDS011;13080;42.608;23.362;2023-04-28T00:36:19;3.38;;;2.33;;
10126;SDS011;13080;42.608;23.362;2023-04-28T00:38:46;3.58;;;2.05;;
10126;SDS011;13080;42.608;23.362;2023-04-28T00:41:14;4.05;;;2.05;;
10126;SDS011;13080;42.608;23.362;2023-04-28T00:43:44;4.40;;;2.20;;
10126;SDS011;13080;42.608;23.362;2023-04-28T00:46:12;4.95;;;2.33;;
10126;SDS011;13080;42.608;23.362;2023-04-28T00:48:46;7.15;;;2.45;;
10126;SDS011;13080;42.608;23.362;2023-04-28T00:51:13;2.53;;;2.03;;
10126;SDS011;13080;42.608;23.362;2023-04-28T00:53:40;6.20;;;2.60;;
10126;SDS011;13080;42.608;23.362;2023-04-28T00:56:07;4.63;;;2.33;;
10126;SDS011;13080;42.608;23.362;2023-04-28T00:58:36;3.53;;;1.90;;
10126;SDS011;13080;42.608;23.362;2023-04-28T01:01:03;6.70;;;2.53;;
10126;SDS011;13080;42.608;23.362;2023-04-28T01:03:31;2.30;;;1.75;;
10126;SDS011;13080;42.608;23.362;2023-04-28T01:05:59;2.75;;;2.30;;
10126;SDS011;13080;42.608;23.362;2023-04-28T01:08:27;5.28;;;2.25;;
10126;SDS011;13080;42.608;23.362;2023-04-28T01:10:55;3.92;;;2.30;;
10126;SDS011;13080;42.608;23.362;2023-04-28T01:13:22;4.28;;;2.00;;
10126;SDS011;13080;42.608;23.362;2023-04-28T01:15:50;4.88;;;2.20;;
10126;SDS011;13080;42.608;23.362;2023-04-28T01:18:17;2.97;;;2.20;;
10126;SDS011;13080;42.608;23.362;2023-04-28T01:20:44;6.00;;;2.45;;
10126;SDS011;13080;42.608;23.362;2023-04-28T01:23:11;7.20;;;2.10;;
10126;SDS011;13080;42.608;23.362;2023-04-28T01:25:39;5.97;;;2.35;;
10126;SDS011;13080;42.608;23.362;2023-04-28T01:28:07;3.15;;;1.88;;
10126;SDS011;13080;42.608;23.362;2023-04-28T01:30:35;4.38;;;2.17;;
10126;SDS011;13080;42.608;23.362;2023-04-28T01:33:02;4.65;;;2.60;;
10126;SDS011;13080;42.608;23.362;2023-04-28T01:35:29;2.85;;;2.08;;
10126;SDS011;13080;42.608;23.362;2023-04-28T01:37:55;5.72;;;2.53;;
10126;SDS011;13080;42.608;23.362;2023-04-28T01:40:22;4.85;;;2.08;;
10126;SDS011;13080;42.608;23.362;2023-04-28T01:42:50;2.03;;;1.83;;
10126;SDS011;13080;42.608;23.362;2023-04-28T01:45:17;4.30;;;2.17;;
10126;SDS011;13080;42.608;23.362;2023-04-28T01:47:43;3.70;;;2.55;;
10126;SDS011;13080;42.608;23.362;2023-04-28T01:50:10;6.93;;;2.28;;
10126;SDS011;13080;42.608;23.362;2023-04-28T01:52:37;14.50;;;2.42;;
10126;SDS011;13080;42.608;23.362;2023-04-28T01:55:04;2.83;;;2.03;;
10126;SDS011;13080;42.608;23.362;2023-04-28T01:57:31;2.25;;;1.67;;
10126;SDS011;13080;42.608;23.362;2023-04-28T02:00:00;2.92;;;2.35;;
10126;SDS011;13080;42.608;23.362;2023-04-28T02:02:28;4.22;;;2.33;;
10126;SDS011;13080;42.608;23.362;2023-04-28T02:04:55;3.67;;;2.50;;
10126;SDS011;13080;42.608;23.362;2023-04-28T02:07:23;3.65;;;2.15;;
10126;SDS011;13080;42.608;23.362;2023-04-28T02:09:49;4.15;;;2.83;;
10126;SDS011;13080;42.608;23.362;2023-04-28T02:12:16;4.93;;;2.08;;
10126;SDS011;13080;42.608;23.362;2023-04-28T02:14:43;8.43;;;3.03;;
10126;SDS011;13080;42.608;23.362;2023-04-28T02:17:11;3.78;;;2.22;;
10126;SDS011;13080;42.608;23.362;2023-04-28T02:19:38;7.07;;;2.40;;
10126;SDS011;13080;42.608;23.362;2023-04-28T02:22:04;4.82;;;1.90;;
10126;SDS011;13080;42.608;23.362;2023-04-28T02:24:33;9.38;;;2.13;;
10126;SDS011;13080;42.608;23.362;2023-04-28T02:27:01;7.18;;;2.58;;
10126;SDS011;13080;42.608;23.362;2023-04-28T02:29:28;3.90;;;2.30;;
10126;SDS011;13080;42.608;23.362;2023-04-28T02:31:56;5.03;;;2.17;;
10126;SDS011;13080;42.608;23.362;2023-04-28T02:34:24;12.85;;;2.80;;
10126;SDS011;13080;42.608;23.362;2023-04-28T02:36:50;5.93;;;2.60;;
10126;SDS011;13080;42.608;23.362;2023-04-28T02:39:17;3.63;;;2.20;;
10126;SDS011;13080;42.608;23.362;2023-04-28T02:41:45;3.10;;;1.98;;
10126;SDS011;13080;42.608;23.362;2023-04-28T02:44:12;5.22;;;2.13;;
10126;SDS011;13080;42.608;23.362;2023-04-28T02:46:39;5.72;;;2.17;;
10126;SDS011;13080;42.608;23.362;2023-04-28T02:49:06;3.50;;;2.20;;
10126;SDS011;13080;42.608;23.362;2023-04-28T02:51:34;6.45;;;3.10;;
10126;SDS011;13080;42.608;23.362;2023-04-28T02:54:01;5.00;;;2.13;;
10126;SDS011;13080;42.608;23.362;2023-04-28T02:56:27;3.42;;;2.38;;
10126;SDS011;13080;42.608;23.362;2023-04-28T02:58:55;4.68;;;2.42;;
10126;SDS011;13080;42.608;23.362;2023-04-28T03:01:22;3.55;;;2.30;;
10126;SDS011;13080;42.608;23.362;2023-04-28T03:03:49;4.03;;;2.58;;
10126;SDS011;13080;42.608;23.362;2023-04-28T03:06:15;6.65;;;2.40;;
10126;SDS011;13080;42.608;23.362;2023-04-28T03:08:43;3.78;;;2.10;;
10126;SDS011;13080;42.608;23.362;2023-04-28T03:11:10;3.63;;;2.40;;
10126;SDS011;13080;42.608;23.362;2023-04-28T03:13:37;3.53;;;2.30;;
10126;SDS011;13080;42.608;23.362;2023-04-28T03:16:04;2.85;;;2.15;;
10126;SDS011;13080;42.608;23.362;2023-04-28T03:18:31;4.47;;;2.05;;
10126;SDS011;13080;42.608;23.362;2023-04-28T03:20:58;3.63;;;2.40;;
10126;SDS011;13080;42.608;23.362;2023-04-28T03:23:25;3.97;;;2.40;;
10126;SDS011;13080;42.608;23.362;2023-04-28T03:25:53;3.90;;;2.83;;
10126;SDS011;13080;42.608;23.362;2023-04-28T03:28:20;3.17;;;2.05;;
10126;SDS011;13080;42.608;23.362;2023-04-28T03:30:47;3.67;;;1.92;;
10126;SDS011;13080;42.608;23.362;2023-04-28T03:33:14;4.70;;;1.88;;
10126;SDS011;13080;42.608;23.362;2023-04-28T03:35:40;5.95;;;2.78;;
10126;SDS011;13080;42.608;23.362;2023-04-28T03:38:10;4.30;;;2.42;;
10126;SDS011;13080;42.608;23.362;2023-04-28T03:40:37;3.92;;;1.95;;
10126;SDS011;13080;42.608;23.362;2023-04-28T03:43:05;4.47;;;1.92;;
10126;SDS011;13080;42.608;23.362;2023-04-28T03:45:32;2.78;;;2.20;;
10126;SDS011;13080;42.608;23.362;2023-04-28T03:47:58;6.32;;;2.28;;
10126;SDS011;13080;42.608;23.362;2023-04-28T03:50:25;5.88;;;2.10;;
10126;SDS011;13080;42.608;23.362;2023-04-28T03:52:52;6.25;;;2.20;;
10126;SDS011;13080;42.608;23.362;2023-04-28T03:55:19;2.63;;;2.22;;
10126;SDS011;13080;42.608;23.362;2023-04-28T03:57:45;2.42;;;1.90;;
10126;SDS011;13080;42.608;23.362;2023-04-28T04:00:14;5.10;;;2.33;;
10126;SDS011;13080;42.608;23.362;2023-04-28T04:02:41;3.03;;;2.15;;
10126;SDS011;13080;42.608;23.362;2023-04-28T04:05:08;5.28;;;2.10;;
10126;SDS011;13080;42.608;23.362;2023-04-28T04:07:34;6.47;;;2.28;;
10126;SDS011;13080;42.608;23.362;2023-04-28T04:10:01;4.32;;;2.05;;
10126;SDS011;13080;42.608;23.362;2023-04-28T04:12:28;2.97;;;1.73;;
10126;SDS011;13080;42.608;23.362;2023-04-28T04:14:56;3.78;;;2.08;;
10126;SDS011;13080;42.608;23.362;2023-04-28T04:17:24;5.63;;;2.30;;
10126;SDS011;13080;42.608;23.362;2023-04-28T04:19:51;2.63;;;2.08;;
10126;SDS011;13080;42.608;23.362;2023-04-28T04:22:18;7.55;;;2.55;;
10126;SDS011;13080;42.608;23.362;2023-04-28T04:24:45;4.93;;;2.28;;
10126;SDS011;13080;42.608;23.362;2023-04-28T04:27:12;2.65;;;2.00;;
10126;SDS011;13080;42.608;23.362;2023-04-28T04:29:38;6.38;;;2.40;;
10126;SDS011;13080;42.608;23.362;2023-04-28T04:32:06;3.38;;;2.17;;
10126;SDS011;13080;42.608;23.362;2023-04-28T04:34:34;4.85;;;1.95;;
10126;SDS011;13080;42.608;23.362;2023-04-28T04:37:01;2.40;;;1.95;;
10126;SDS011;13080;42.608;23.362;2023-04-28T04:39:27;3.65;;;2.35;;
10126;SDS011;13080;42.608;23.362;2023-04-28T04:41:54;2.35;;;1.85;;
10126;SDS011;13080;42.608;23.362;2023-04-28T04:44:21;2.63;;;1.85;;
10126;SDS011;13080;42.608;23.362;2023-04-28T04:46:48;3.80;;;1.75;;
10126;SDS011;13080;42.608;23.362;2023-04-28T04:49:15;3.33;;;2.35;;
10126;SDS011;13080;42.608;23.362;2023-04-28T04:51:43;2.92;;;1.80;;
10126;SDS011;13080;42.608;23.362;2023-04-28T04:54:10;3.67;;;2.05;;
10126;SDS011;13080;42.608;23.362;2023-04-28T04:56:36;5.47;;;2.10;;
10126;SDS011;13080;42.608;23.362;2023-04-28T04:59:03;3.85;;;2.17;;
10126;SDS011;13080;42.608;23.362;2023-04-28T05:01:30;4.38;;;1.90;;
10126;SDS011;13080;42.608;23.362;2023-04-28T05:03:57;3.97;;;2.10;;
10126;SDS011;13080;42.608;23.362;2023-04-28T05:06:23;3.75;;;2.60;;
10126;SDS011;13080;42.608;23.362;2023-04-28T05:08:52;2.50;;;2.03;;
10126;SDS011;13080;42.608;23.362;2023-04-28T05:11:20;5.25;;;2.22;;
10126;SDS011;13080;42.608;23.362;2023-04-28T05:13:47;2.60;;;2.17;;
10126;SDS011;13080;42.608;23.362;2023-04-28T05:16:14;5.22;;;1.90;;
10126;SDS011;13080;42.608;23.362;2023-04-28T05:18:40;5.25;;;2.00;;
10126;SDS011;13080;42.608;23.362;2023-04-28T05:21:07;5.82;;;2.10;;
10126;SDS011;13080;42.608;23.362;2023-04-28T05:23:35;2.88;;;1.90;;
10126;SDS011;13080;42.608;23.362;2023-04-28T05:26:04;2.90;;;1.90;;
10126;SDS011;13080;42.608;23.362;2023-04-28T05:28:30;4.43;;;2.20;;
10126;SDS011;13080;42.608;23.362;2023-04-28T05:30:57;4.53;;;2.30;;
10126;SDS011;13080;42.608;23.362;2023-04-28T05:33:24;2.25;;;1.73;;
10126;SDS011;13080;42.608;23.362;2023-04-28T05:35:50;3.53;;;2.15;;
10126;SDS011;13080;42.608;23.362;2023-04-28T05:38:17;4.53;;;2.63;;
10126;SDS011;13080;42.608;23.362;2023-04-28T05:40:44;4.72;;;2.15;;
10126;SDS011;13080;42.608;23.362;2023-04-28T05:43:12;6.72;;;2.28;;
10126;SDS011;13080;42.608;23.362;2023-04-28T05:45:39;3.58;;;2.17;;
10126;SDS011;13080;42.608;23.362;2023-04-28T05:48:06;5.47;;;2.25;;
10126;SDS011;13080;42.608;23.362;2023-04-28T05:50:32;3.17;;;2.25;;
10126;SDS011;13080;42.608;23.362;2023-04-28T05:52:59;3.00;;;2.13;;
10126;SDS011;13080;42.608;23.362;2023-04-28T05:55:26;5.43;;;2.67;;
10126;SDS011;13080;42.608;23.362;2023-04-28T05:57:53;5.07;;;2.28;;
10126;SDS011;13080;42.608;23.362;2023-04-28T06:00:21;8.40;;;2.55;;
10126;SDS011;13080;42.608;23.362;2023-04-28T06:02:48;2.65;;;2.20;;
10126;SDS011;13080;42.608;23.362;2023-04-28T06:05:15;5.35;;;2.33;;
10126;SDS011;13080;42.608;23.362;2023-04-28T06:07:42;4.40;;;2.45;;
10126;SDS011;13080;42.608;23.362;2023-04-28T06:10:09;3.83;;;2.33;;
10126;SDS011;13080;42.608;23.362;2023-04-28T06:12:36;2.60;;;1.85;;
10126;SDS011;13080;42.608;23.362;2023-04-28T06:15:04;5.57;;;2.40;;
10126;SDS011;13080;42.608;23.362;2023-04-28T06:17:33;6.20;;;1.67;;
10126;SDS011;13080;42.608;23.362;2023-04-28T06:20:01;3.95;;;2.30;;
10126;SDS011;13080;42.608;23.362;2023-04-28T06:22:29;4.32;;;1.90;;
10126;SDS011;13080;42.608;23.362;2023-04-28T06:24:55;3.88;;;2.08;;
10126;SDS011;13080;42.608;23.362;2023-04-28T06:27:22;3.10;;;2.60;;
10126;SDS011;13080;42.608;23.362;2023-04-28T06:29:49;3.05;;;2.08;;
10126;SDS011;13080;42.608;23.362;2023-04-28T06:32:15;4.45;;;2.08;;
10126;SDS011;13080;42.608;23.362;2023-04-28T06:34:44;4.20;;;2.25;;
10126;SDS011;13080;42.608;23.362;2023-04-28T06:37:10;4.80;;;1.95;;
10126;SDS011;13080;42.608;23.362;2023-04-28T06:39:37;3.28;;;2.00;;
10126;SDS011;13080;42.608;23.362;2023-04-28T06:42:04;6.15;;;1.88;;
10126;SDS011;13080;42.608;23.362;2023-04-28T06:44:31;4.45;;;2.42;;
10126;SDS011;13080;42.608;23.362;2023-04-28T06:46:58;3.28;;;2.03;;
10126;SDS011;13080;42.608;23.362;2023-04-28T06:49:25;6.07;;;2.05;;
10126;SDS011;13080;42.608;23.362;2023-04-28T06:51:53;4.82;;;2.33;;
10126;SDS011;13080;42.608;23.362;2023-04-28T06:54:20;2.85;;;2.00;;
10126;SDS011;13080;42.608;23.362;2023-04-28T06:56:47;3.15;;;2.15;;
10126;SDS011;13080;42.608;23.362;2023-04-28T06:59:13;3.85;;;1.92;;
10126;SDS011;13080;42.608;23.362;2023-04-28T07:01:40;6.55;;;2.20;;
10126;SDS011;13080;42.608;23.362;2023-04-28T07:04:07;3.40;;;2.03;;
10126;SDS011;13080;42.608;23.362;2023-04-28T07:06:33;3.60;;;2.25;;
10126;SDS011;13080;42.608;23.362;2023-04-28T07:09:02;5.70;;;2.10;;
10126;SDS011;13080;42.608;23.362;2023-04-28T07:11:28;3.80;;;2.10;;
10126;SDS011;13080;42.608;23.362;2023-04-28T07:13:57;4.43;;;2.13;;
10126;SDS011;13080;42.608;23.362;2023-04-28T07:16:24;5.03;;;2.83;;
10126;SDS011;13080;42.608;23.362;2023-04-28T07:18:51;3.15;;;1.85;;
10126;SDS011;13080;42.608;23.362;2023-04-28T07:21:18;3.67;;;1.67;;
10126;SDS011;13080;42.608;23.362;2023-04-28T07:23:45;3.78;;;2.22;;
10126;SDS011;13080;42.608;23.362;2023-04-28T07:26:14;5.00;;;2.22;;
10126;SDS011;13080;42.608;23.362;2023-04-28T07:28:41;3.65;;;2.22;;
10126;SDS011;13080;42.608;23.362;2023-04-28T07:31:10;3.60;;;2.17;;
10126;SDS011;13080;42.608;23.362;2023-04-28T07:33:37;5.95;;;2.10;;
10126;SDS011;13080;42.608;23.362;2023-04-28T07:36:04;7.35;;;1.98;;
10126;SDS011;13080;42.608;23.362;2023-04-28T07:38:32;4.18;;;2.38;;
10126;SDS011;13080;42.608;23.362;2023-04-28T07:40:59;4.90;;;2.13;;
10126;SDS011;13080;42.608;23.362;2023-04-28T07:43:27;4.55;;;2.22;;
10126;SDS011;13080;42.608;23.362;2023-04-28T07:45:54;7.05;;;2.25;;
10126;SDS011;13080;42.608;23.362;2023-04-28T07:48:21;6.10;;;2.20;;
10126;SDS011;13080;42.608;23.362;2023-04-28T07:50:48;4.35;;;2.00;;
10126;SDS011;13080;42.608;23.362;2023-04-28T07:53:14;2.95;;;1.42;;
10126;SDS011;13080;42.608;23.362;2023-04-28T07:55:41;4.53;;;2.10;;
10126;SDS011;13080;42.608;23.362;2023-04-28T07:58:09;3.97;;;2.53;;
10126;SDS011;13080;42.608;23.362;2023-04-28T08:00:38;4.60;;;2.03;;
10126;SDS011;13080;42.608;23.362;2023-04-28T08:03:04;5.50;;;2.72;;
10126;SDS011;13080;42.608;23.362;2023-04-28T08:05:31;5.13;;;2.20;;
10126;SDS011;13080;42.608;23.362;2023-04-28T08:07:58;3.80;;;2.13;;
10126;SDS011;13080;42.608;23.362;2023-04-28T08:10:25;6.28;;;2.50;;
10126;SDS011;13080;42.608;23.362;2023-04-28T08:12:52;4.05;;;2.00;;
10126;SDS011;13080;42.608;23.362;2023-04-28T08:15:18;4.57;;;2.00;;
10126;SDS011;13080;42.608;23.362;2023-04-28T08:17:47;2.47;;;1.98;;
10126;SDS011;13080;42.608;23.362;2023-04-28T08:20:14;3.15;;;2.45;;
10126;SDS011;13080;42.608;23.362;2023-04-28T08:22:43;6.28;;;2.03;;
10126;SDS011;13080;42.608;23.362;2023-04-28T08:25:10;5.38;;;2.22;;
10126;SDS011;13080;42.608;23.362;2023-04-28T08:27:37;3.40;;;2.20;;
10126;SDS011;13080;42.608;23.362;2023-04-28T08:30:05;3.28;;;2.20;;
10126;SDS011;13080;42.608;23.362;2023-04-28T08:32:33;3.03;;;2.22;;
10126;SDS011;13080;42.608;23.362;2023-04-28T08:35:01;3.20;;;2.42;;
10126;SDS011;13080;42.608;23.362;2023-04-28T08:37:28;4.38;;;2.10;;
10126;SDS011;13080;42.608;23.362;2023-04-28T08:39:55;3.78;;;2.25;;
10126;SDS011;13080;42.608;23.362;2023-04-28T08:42:27;3.30;;;2.15;;
10126;SDS011;13080;42.608;23.362;2023-04-28T08:44:54;3.80;;;1.98;;
10126;SDS011;13080;42.608;23.362;2023-04-28T08:47:23;4.43;;;1.95;;
10126;SDS011;13080;42.608;23.362;2023-04-28T08:50:00;3.10;;;2.20;;
10126;SDS011;13080;42.608;23.362;2023-04-28T08:52:29;5.10;;;1.95;;
10126;SDS011;13080;42.608;23.362;2023-04-28T08:54:56;6.80;;;2.55;;
10126;SDS011;13080;42.608;23.362;2023-04-28T08:57:24;6.20;;;2.33;;
10126;SDS011;13080;42.608;23.362;2023-04-28T08:59:51;4.63;;;2.17;;
10126;SDS011;13080;42.608;23.362;2023-04-28T09:02:18;4.30;;;2.60;;
10126;SDS011;13080;42.608;23.362;2023-04-28T09:04:45;4.05;;;2.03;;
10126;SDS011;13080;42.608;23.362;2023-04-28T09:07:14;5.20;;;2.50;;
10126;SDS011;13080;42.608;23.362;2023-04-28T09:09:40;5.95;;;2.00;;
10126;SDS011;13080;42.608;23.362;2023-04-28T09:12:09;3.42;;;2.25;;
10126;SDS011;13080;42.608;23.362;2023-04-28T09:14:37;3.88;;;2.47;;
10126;SDS011;13080;42.608;23.362;2023-04-28T09:17:08;4.68;;;2.30;;
10126;SDS011;13080;42.608;23.362;2023-04-28T09:19:36;4.22;;;1.90;;
10126;SDS011;13080;42.608;23.362;2023-04-28T09:22:06;4.75;;;1.90;;
10126;SDS011;13080;42.608;23.362;2023-04-28T09:24:35;5.60;;;2.20;;
10126;SDS011;13080;42.608;23.362;2023-04-28T09:27:04;4.78;;;1.95;;
10126;SDS011;13080;42.608;23.362;2023-04-28T09:29:34;4.88;;;2.10;;
10126;SDS011;13080;42.608;23.362;2023-04-28T09:32:14;5.93;;;1.80;;
10126;SDS011;13080;42.608;23.362;2023-04-28T09:34:42;4.85;;;3.00;;
10126;SDS011;13080;42.608;23.362;2023-04-28T09:37:13;3.42;;;1.90;;
10126;SDS011;13080;42.608;23.362;2023-04-28T09:39:42;5.40;;;2.25;;
10126;SDS011;13080;42.608;23.362;2023-04-28T09:42:10;10.85;;;2.83;;
10126;SDS011;13080;42.608;23.362;2023-04-28T09:44:56;4.95;;;1.75;;
10126;SDS011;13080;42.608;23.362;2023-04-28T09:47:23;3.67;;;1.95;;
10126;SDS011;13080;42.608;23.362;2023-04-28T09:49:53;4.30;;;1.95;;
10126;SDS011;13080;42.608;23.362;2023-04-28T09:52:21;3.63;;;1.70;;
10126;SDS011;13080;42.608;23.362;2023-04-28T09:54:50;5.10;;;2.17;;
10126;SDS011;13080;42.608;23.362;2023-04-28T09:57:19;3.65;;;1.83;;
10126;SDS011;13080;42.608;23.362;2023-04-28T09:59:46;4.03;;;1.83;;
10126;SDS011;13080;42.608;23.362;2023-04-28T10:02:14;4.43;;;2.00;;
10126;SDS011;13080;42.608;23.362;2023-04-28T10:04:43;6.47;;;1.75;;
10126;SDS011;13080;42.608;23.362;2023-04-28T10:07:11;5.28;;;1.83;;
10126;SDS011;13080;42.608;23.362;2023-04-28T10:09:38;4.38;;;1.88;;
10126;SDS011;13080;42.608;23.362;2023-04-28T10:12:09;2.92;;;1.38;;
10126;SDS011;13080;42.608;23.362;2023-04-28T10:14:36;4.32;;;2.00;;
10126;SDS011;13080;42.608;23.362;2023-04-28T10:17:03;2.25;;;1.60;;
10126;SDS011;13080;42.608;23.362;2023-04-28T10:19:30;4.50;;;1.90;;
10126;SDS011;13080;42.608;23.362;2023-04-28T10:22:00;5.15;;;1.50;;
10126;SDS011;13080;42.608;23.362;2023-04-28T10:24:45;3.08;;;2.10;;
10126;SDS011;13080;42.608;23.362;2023-04-28T10:27:31;3.22;;;1.77;;
10126;SDS011;13080;42.608;23.362;2023-04-28T10:30:08;2.90;;;1.90;;
10126;SDS011;13080;42.608;23.362;2023-04-28T10:32:36;3.80;;;1.80;;
10126;SDS011;13080;42.608;23.362;2023-04-28T10:38:08;4.25;;;1.77;;
10126;SDS011;13080;42.608;23.362;2023-04-28T10:40:37;2.30;;;1.80;;
10126;SDS011;13080;42.608;23.362;2023-04-28T10:43:06;6.43;;;2.22;;
10126;SDS011;13080;42.608;23.362;2023-04-28T10:48:53;6.10;;;1.95;;
10126;SDS011;13080;42.608;23.362;2023-04-28T10:51:29;6.50;;;2.13;;
10126;SDS011;13080;42.608;23.362;2023-04-28T10:54:16;4.63;;;2.08;;
10126;SDS011;13080;42.608;23.362;2023-04-28T10:59:46;2.30;;;1.73;;
10126;SDS011;13080;42.608;23.362;2023-04-28T11:02:36;3.72;;;1.50;;
10126;SDS011;13080;42.608;23.362;2023-04-28T11:05:14;4.55;;;1.67;;
10126;SDS011;13080;42.608;23.362;2023-04-28T11:11:12;3.13;;;1.35;;
10126;SDS011;13080;42.608;23.362;2023-04-28T11:13:40;2.70;;;1.58;;
10126;SDS011;13080;42.608;23.362;2023-04-28T11:16:08;3.28;;;1.40;;
10126;SDS011;13080;42.608;23.362;2023-04-28T11:18:38;4.82;;;1.77;;
10126;SDS011;13080;42.608;23.362;2023-04-28T11:21:24;3.17;;;1.50;;
10126;SDS011;13080;42.608;23.362;2023-04-28T11:23:52;3.33;;;1.52;;
10126;SDS011;13080;42.608;23.362;2023-04-28T11:26:19;3.05;;;1.70;;
10126;SDS011;13080;42.608;23.362;2023-04-28T11:28:51;5.93;;;1.90;;
10126;SDS011;13080;42.608;23.362;2023-04-28T11:31:21;3.70;;;1.38;;
10126;SDS011;13080;42.608;23.362;2023-04-28T11:33:57;5.03;;;1.60;;
10126;SDS011;13080;42.608;23.362;2023-04-28T11:36:29;3.22;;;1.27;;
10126;SDS011;13080;42.608;23.362;2023-04-28T11:38:59;4.22;;;1.70;;
10126;SDS011;13080;42.608;23.362;2023-04-28T11:41:29;4.32;;;1.35;;
10126;SDS011;13080;42.608;23.362;2023-04-28T11:43:56;4.05;;;1.60;;
10126;SDS011;13080;42.608;23.362;2023-04-28T11:46:24;3.05;;;1.73;;
10126;SDS011;13080;42.608;23.362;2023-04-28T11:49:01;7.00;;;1.60;;
10126;SDS011;13080;42.608;23.362;2023-04-28T11:51:30;4.63;;;1.17;;
10126;SDS011;13080;42.608;23.362;2023-04-28T11:53:58;5.28;;;1.58;;
10126;SDS011;13080;42.608;23.362;2023-04-28T11:56:25;7.05;;;1.63;;
10126;SDS011;13080;42.608;23.362;2023-04-28T11:58:58;1.58;;;1.38;;
10126;SDS011;13080;42.608;23.362;2023-04-28T12:01:31;4.28;;;1.25;;
10126;SDS011;13080;42.608;23.362;2023-04-28T12:03:58;3.50;;;1.30;;
10126;SDS011;13080;42.608;23.362;2023-04-28T12:06:25;2.47;;;1.23;;
10126;SDS011;13080;42.608;23.362;2023-04-28T12:08:53;3.00;;;1.30;;
10126;SDS011;13080;42.608;23.362;2023-04-28T12:11:21;3.90;;;1.30;;
10126;SDS011;13080;42.608;23.362;2023-04-28T12:14:07;4.40;;;1.45;;
10126;SDS011;13080;42.608;23.362;2023-04-28T12:16:42;2.75;;;1.27;;
10126;SDS011;13080;42.608;23.362;2023-04-28T12:19:11;2.60;;;1.20;;
10126;SDS011;13080;42.608;23.362;2023-04-28T12:21:39;3.05;;;1.15;;
10126;SDS011;13080;42.608;23.362;2023-04-28T12:24:16;2.30;;;1.20;;
10126;SDS011;13080;42.608;23.362;2023-04-28T12:26:45;1.25;;;1.08;;
10126;SDS011;13080;42.608;23.362;2023-04-28T12:32:04;2.30;;;1.17;;
10126;SDS011;13080;42.608;23.362;2023-04-28T12:34:32;4.15;;;1.17;;
10126;SDS011;13080;42.608;23.362;2023-04-28T12:36:59;2.05;;;1.30;;
10126;SDS011;13080;42.608;23.362;2023-04-28T12:39:27;3.95;;;1.08;;
10126;SDS011;13080;42.608;23.362;2023-04-28T12:41:54;4.65;;;1.20;;
10126;SDS011;13080;42.608;23.362;2023-04-28T12:44:23;2.42;;;1.13;;
10126;SDS011;13080;42.608;23.362;2023-04-28T12:46:50;2.22;;;1.20;;
10126;SDS011;13080;42.608;23.362;2023-04-28T12:49:18;4.45;;;1.48;;
10126;SDS011;13080;42.608;23.362;2023-04-28T12:51:45;2.72;;;1.60;;
10126;SDS011;13080;42.608;23.362;2023-04-28T12:54:12;1.80;;;1.38;;
10126;SDS011;13080;42.608;23.362;2023-04-28T12:56:39;2.85;;;1.23;;
10126;SDS011;13080;42.608;23.362;2023-04-28T12:59:06;3.20;;;1.70;;
10126;SDS011;13080;42.608;23.362;2023-04-28T13:01:33;6.57;;;1.65;;
10126;SDS011;13080;42.608;23.362;2023-04-28T13:04:00;2.00;;;1.10;;
10126;SDS011;13080;42.608;23.362;2023-04-28T13:06:28;5.93;;;1.70;;
10126;SDS011;13080;42.608;23.362;2023-04-28T13:08:55;6.22;;;1.50;;
10126;SDS011;13080;42.608;23.362;2023-04-28T13:11:21;2.78;;;1.30;;
10126;SDS011;13080;42.608;23.362;2023-04-28T13:13:52;2.67;;;1.42;;
10126;SDS011;13080;42.608;23.362;2023-04-28T13:16:20;2.35;;;1.30;;
10126;SDS011;13080;42.608;23.362;2023-04-28T13:18:49;4.07;;;1.30;;
10126;SDS011;13080;42.608;23.362;2023-04-28T13:21:16;1.77;;;1.20;;
10126;SDS011;13080;42.608;23.362;2023-04-28T13:23:44;3.38;;;1.45;;
10126;SDS011;13080;42.608;23.362;2023-04-28T13:26:11;7.32;;;1.98;;
10126;SDS011;13080;42.608;23.362;2023-04-28T13:28:38;2.85;;;1.33;;
10126;SDS011;13080;42.608;23.362;2023-04-28T13:31:05;3.10;;;1.20;;
10126;SDS011;13080;42.608;23.362;2023-04-28T13:33:32;5.65;;;1.60;;
10126;SDS011;13080;42.608;23.362;2023-04-28T13:35:59;3.45;;;1.20;;
10126;SDS011;13080;42.608;23.362;2023-04-28T13:38:26;4.15;;;1.45;;
10126;SDS011;13080;42.608;23.362;2023-04-28T13:40:54;2.80;;;1.10;;
10126;SDS011;13080;42.608;23.362;2023-04-28T13:43:21;5.05;;;1.35;;
10126;SDS011;13080;42.608;23.362;2023-04-28T13:45:48;2.30;;;1.10;;
10126;SDS011;13080;42.608;23.362;2023-04-28T13:48:15;3.92;;;1.55;;
10126;SDS011;13080;42.608;23.362;2023-04-28T13:50:42;3.15;;;1.20;;
10126;SDS011;13080;42.608;23.362;2023-04-28T13:53:09;2.55;;;1.13;;
10126;SDS011;13080;42.608;23.362;2023-04-28T13:55:36;2.47;;;1.17;;
10126;SDS011;13080;42.608;23.362;2023-04-28T13:58:04;2.35;;;1.35;;
10126;SDS011;13080;42.608;23.362;2023-04-28T14:00:31;1.75;;;1.10;;
10126;SDS011;13080;42.608;23.362;2023-04-28T14:02:58;4.32;;;1.17;;
10126;SDS011;13080;42.608;23.362;2023-04-28T14:05:26;2.75;;;1.65;;
10126;SDS011;13080;42.608;23.362;2023-04-28T14:07:54;1.80;;;1.00;;
10126;SDS011;13080;42.608;23.362;2023-04-28T14:10:21;3.40;;;1.48;;
10126;SDS011;13080;42.608;23.362;2023-04-28T14:12:48;3.08;;;1.20;;
10126;SDS011;13080;42.608;23.362;2023-04-28T14:15:17;3.65;;;1.13;;
10126;SDS011;13080;42.608;23.362;2023-04-28T14:17:43;3.58;;;1.20;;
10126;SDS011;13080;42.608;23.362;2023-04-28T14:20:11;2.00;;;1.17;;
10126;SDS011;13080;42.608;23.362;2023-04-28T14:22:38;4.70;;;1.85;;
10126;SDS011;13080;42.608;23.362;2023-04-28T14:25:05;4.82;;;1.55;;
10126;SDS011;13080;42.608;23.362;2023-04-28T14:27:33;3.25;;;1.40;;
10126;SDS011;13080;42.608;23.362;2023-04-28T14:30:00;2.65;;;1.08;;
10126;SDS011;13080;42.608;23.362;2023-04-28T14:32:29;2.38;;;1.23;;
10126;SDS011;13080;42.608;23.362;2023-04-28T14:34:56;9.25;;;1.60;;
10126;SDS011;13080;42.608;23.362;2023-04-28T14:37:22;3.30;;;1.30;;
10126;SDS011;13080;42.608;23.362;2023-04-28T14:39:50;1.95;;;1.63;;
10126;SDS011;13080;42.608;23.362;2023-04-28T14:42:17;2.08;;;1.20;;
10126;SDS011;13080;42.608;23.362;2023-04-28T14:44:44;5.07;;;1.27;;
10126;SDS011;13080;42.608;23.362;2023-04-28T14:47:12;3.42;;;1.30;;
10126;SDS011;13080;42.608;23.362;2023-04-28T14:49:40;2.88;;;1.25;;
10126;SDS011;13080;42.608;23.362;2023-04-28T14:52:07;1.73;;;1.30;;
10126;SDS011;13080;42.608;23.362;2023-04-28T14:54:34;3.13;;;1.38;;